Terminal Aerodrome Forecast
Issued by NWS

Home | Current Version | Previous Version | Text Only | Print | Product List | Glossary On
Versions: 1 2 3 4 5 6 7 8 9 10 11 12 13
000
FTUS43 KIND 252000 AAA
TAFHUF
TAF AMD
KHUF 252026Z 2520/2618 08013KT 5SM BR BKN008 OVC030
      TEMPO 2521/2601 2SM -SHRA BR
     FM260100 08008KT 5SM BR OVC006
     FM260400 04012KT P6SM OVC015
     FM260800 02011KT P6SM SCT020
     FM261200 03012KT P6SM SCT250=

USA.gov is the U.S. government's official web portal to all federal, state and local government web resources and services.